Time;durP1;ratioP1;P1;durP2;ratioP2;P2;SDS_P1;SDS_P2;PMS_P1;PMS_P2;Temp;Humidity;BMP_temperature;BMP_pressure;BME280_temperature;BME280_humidity;BME280_pressure;Samples;Min_cycle;Max_cycle;Signal;HPM_P1;HPM_P2
2022/08/29 00:00:37;;;;;;;8.70;2.20;;;;;;;14.56;100.00;96950.53;4995470;28;20053;-72
2022/08/29 00:03:05;;;;;;;8.82;1.95;;;;;;;14.39;100.00;96953.34;4993962;28;20046;-72
2022/08/29 00:05:35;;;;;;;9.35;3.30;;;;;;;14.49;100.00;96953.44;4993661;28;20416;-73
2022/08/29 00:08:01;;;;;;;7.88;2.13;;;;;;;14.45;100.00;96960.38;4993788;28;20135;-73
2022/08/29 00:10:28;;;;;;;9.05;2.38;;;;;;;14.33;100.00;96951.72;4993203;28;20389;-73
2022/08/29 00:12:54;;;;;;;7.25;2.28;;;;;;;14.33;100.00;96949.03;4994760;28;20038;-72
2022/08/29 00:15:20;;;;;;;9.63;2.08;;;;;;;14.18;100.00;96947.84;4994263;28;20056;-73
2022/08/29 00:17:46;;;;;;;10.32;2.33;;;;;;;14.12;100.00;96938.09;4992697;28;20050;-73
2022/08/29 00:20:16;;;;;;;7.97;2.15;;;;;;;14.03;100.00;96942.34;4992548;28;20061;-72
2022/08/29 00:22:42;;;;;;;12.00;2.00;;;;;;;14.05;100.00;96944.78;4992863;28;20041;-73
2022/08/29 00:25:13;;;;;;;9.88;2.15;;;;;;;14.10;100.00;96937.56;4993837;28;20042;-73
2022/08/29 00:27:39;;;;;;;12.75;2.20;;;;;;;14.07;100.00;96943.44;4993854;28;20532;-73
2022/08/29 00:30:07;;;;;;;13.77;2.22;;;;;;;14.10;100.00;96940.25;4994093;28;20113;-73
2022/08/29 00:32:33;;;;;;;6.28;2.10;;;;;;;14.05;100.00;96945.59;4990219;28;20463;-73
2022/08/29 00:35:04;;;;;;;9.38;2.25;;;;;;;13.78;100.00;96934.91;4994790;28;20104;-73
2022/08/29 00:37:30;;;;;;;9.50;2.25;;;;;;;13.77;100.00;96945.91;4988994;28;20433;-72
2022/08/29 00:39:56;;;;;;;10.15;2.10;;;;;;;13.92;100.00;96943.34;4994345;28;20123;-73
2022/08/29 00:42:21;;;;;;;18.83;2.25;;;;;;;14.04;100.00;96945.84;4992416;28;20120;-73
2022/08/29 00:44:47;;;;;;;12.10;2.70;;;;;;;14.05;100.00;96947.47;4993424;28;20034;-73
2022/08/29 00:47:18;;;;;;;12.70;2.05;;;;;;;13.98;100.00;96949.56;4991107;28;20046;-72
2022/08/29 00:49:49;;;;;;;11.48;2.30;;;;;;;13.87;100.00;96954.09;4991594;28;20697;-73
2022/08/29 00:52:27;;;;;;;;;;;;;;;13.73;100.00;96963.63;4993708;28;20033;-73
2022/08/29 00:54:54;;;;;;;7.38;1.83;;;;;;;13.61;100.00;96964.59;4994027;28;19924;-73
2022/08/29 00:57:22;;;;;;;13.25;2.60;;;;;;;13.62;100.00;96963.56;4992879;28;20113;-73
2022/08/29 00:59:49;;;;;;;11.75;2.35;;;;;;;13.52;100.00;96965.31;5008464;28;20117;-73
2022/08/29 01:02:16;;;;;;;6.78;2.33;;;;;;;13.49;100.00;96958.59;4992941;28;20624;-72
2022/08/29 01:07:17;;;;;;;12.38;2.30;;;;;;;13.43;100.00;96962.28;4046284;23;20639;-69
2022/08/29 01:09:45;;;;;;;10.20;2.38;;;;;;;13.32;100.00;96965.94;4993940;28;20151;-71
2022/08/29 01:12:15;;;;;;;8.63;2.25;;;;;;;13.26;100.00;96969.66;4992640;28;20520;-73
2022/08/29 01:15:04;;;;;;;11.45;2.40;;;;;;;13.26;100.00;96969.66;4994142;28;20045;-72
2022/08/29 01:17:35;;;;;;;10.20;2.85;;;;;;;13.21;100.00;96977.66;4993840;28;20045;-73
2022/08/29 01:20:08;;;;;;;10.02;2.58;;;;;;;13.17;100.00;96971.13;4994519;28;20117;-70
2022/08/29 01:23:06;;;;;;;8.75;1.77;;;;;;;13.15;100.00;96971.41;4993444;28;20563;-70
2022/08/29 01:25:37;;;;;;;8.63;1.85;;;;;;;13.01;100.00;96968.28;4990699;28;20046;-70
2022/08/29 01:28:08;;;;;;;11.75;2.63;;;;;;;12.97;100.00;96969.81;4994900;28;20109;-72
2022/08/29 01:30:34;;;;;;;19.15;7.13;;;;;;;12.84;100.00;96970.22;4992367;28;20567;-71
2022/08/29 01:32:59;;;;;;;13.30;4.80;;;;;;;12.79;100.00;96975.53;4994752;28;20049;-71
2022/08/29 01:35:26;;;;;;;10.57;4.03;;;;;;;12.71;100.00;96970.59;4991962;28;20054;-72
2022/08/29 01:37:52;;;;;;;10.48;4.13;;;;;;;12.78;100.00;96965.84;4991771;28;20056;-71
2022/08/29 01:40:18;;;;;;;10.35;3.20;;;;;;;12.75;100.00;96975.19;5006814;28;20480;-71
2022/08/29 01:42:43;;;;;;;9.43;2.88;;;;;;;12.77;100.00;96966.91;4993919;28;20049;-71
2022/08/29 01:45:10;;;;;;;10.38;2.67;;;;;;;12.86;100.00;96969.97;4992524;28;20728;-73
2022/08/29 01:47:37;;;;;;;10.30;2.55;;;;;;;12.86;100.00;96970.78;4992335;28;20129;-70
2022/08/29 01:50:11;;;;;;;6.53;2.33;;;;;;;12.86;100.00;96976.16;5007880;28;20052;-73
2022/08/29 01:52:37;;;;;;;8.77;2.42;;;;;;;12.65;100.00;96975.06;4991737;28;20447;-70
2022/08/29 01:55:03;;;;;;;12.70;2.55;;;;;;;12.46;100.00;96977.25;4993121;28;20087;-74
2022/08/29 01:57:29;;;;;;;11.32;2.40;;;;;;;12.48;100.00;96972.44;4983936;28;20465;-74
2022/08/29 01:59:55;;;;;;;15.73;2.60;;;;;;;12.37;100.00;96983.28;4994648;28;20052;-74
2022/08/29 02:02:27;;;;;;;9.48;2.25;;;;;;;12.37;100.00;96978.72;4991858;28;20060;-71
2022/08/29 02:04:56;;;;;;;8.25;2.10;;;;;;;12.44;100.00;96965.94;4994383;28;20473;-72
2022/08/29 02:07:23;;;;;;;7.05;2.33;;;;;;;12.45;100.00;96978.31;4992841;28;20077;-70
2022/08/29 02:09:49;;;;;;;9.00;2.30;;;;;;;12.44;100.00;96978.53;4992316;28;20038;-71
2022/08/29 02:12:16;;;;;;;7.97;2.38;;;;;;;12.24;100.00;96979.09;4992412;28;20061;-71
2022/08/29 02:14:42;;;;;;;12.30;2.47;;;;;;;12.23;100.00;96977.47;4992276;28;20669;-74
2022/08/29 02:17:08;;;;;;;7.55;2.40;;;;;;;12.19;100.00;96976.31;4992470;28;20512;-73
2022/08/29 02:19:36;;;;;;;9.50;2.67;;;;;;;12.26;100.00;96979.63;4993068;28;20167;-74
2022/08/29 02:22:01;;;;;;;8.93;2.42;;;;;;;12.13;100.00;96982.66;4992773;28;20446;-73
2022/08/29 02:24:28;;;;;;;11.63;2.70;;;;;;;12.14;100.00;96986.97;4991311;28;20033;-70
2022/08/29 02:26:56;;;;;;;11.30;2.30;;;;;;;12.23;100.00;96996.25;4992311;28;20088;-73
2022/08/29 02:29:22;;;;;;;13.77;2.55;;;;;;;12.19;100.00;96987.03;4992194;28;20523;-69
2022/08/29 02:31:48;;;;;;;7.38;2.03;;;;;;;12.21;100.00;96991.09;5005913;28;20243;-71
2022/08/29 02:34:14;;;;;;;8.88;2.50;;;;;;;12.17;100.00;96989.97;5007909;28;20676;-71
2022/08/29 02:36:40;;;;;;;8.57;2.80;;;;;;;12.20;100.00;96985.97;4991855;28;20045;-69
2022/08/29 02:39:06;;;;;;;9.68;2.28;;;;;;;11.93;100.00;96993.91;4993057;28;20045;-73
2022/08/29 02:41:31;;;;;;;7.03;2.38;;;;;;;11.82;100.00;96990.22;4989836;28;20480;-73
2022/08/29 02:43:57;;;;;;;9.15;2.50;;;;;;;11.97;100.00;96989.66;4992943;28;20049;-71
2022/08/29 02:46:24;;;;;;;8.38;2.78;;;;;;;12.07;100.00;96992.50;4991512;28;21190;-71
2022/08/29 02:48:49;;;;;;;8.35;2.78;;;;;;;12.10;100.00;96981.28;4991988;28;20046;-71
2022/08/29 02:51:24;;;;;;;13.07;2.78;;;;;;;12.06;100.00;96971.28;4991335;28;20753;-71
2022/08/29 02:53:49;;;;;;;9.23;2.75;;;;;;;12.10;100.00;96978.59;4992699;28;20034;-71
2022/08/29 02:56:16;;;;;;;6.30;2.45;;;;;;;11.87;100.00;96984.94;4991050;28;20034;-70
2022/08/29 02:58:41;;;;;;;10.90;2.63;;;;;;;11.94;100.00;96988.28;4991564;28;20046;-70
2022/08/29 03:01:07;;;;;;;12.65;2.83;;;;;;;11.86;100.00;96994.06;4995363;28;20088;-71
2022/08/29 03:03:34;;;;;;;10.10;2.60;;;;;;;11.90;100.00;96991.69;4996200;28;20345;-73
2022/08/29 03:05:59;;;;;;;11.07;2.65;;;;;;;11.88;100.00;96991.13;4996761;28;20178;-71
2022/08/29 03:08:25;;;;;;;12.65;3.40;;;;;;;11.71;100.00;96986.53;4995737;28;20033;-73
2022/08/29 03:10:50;;;;;;;9.82;2.75;;;;;;;11.79;100.00;96981.81;4995094;28;20512;-70
2022/08/29 03:13:16;;;;;;;12.93;3.47;;;;;;;11.65;100.00;96984.00;4994134;28;20108;-73
2022/08/29 03:15:42;;;;;;;11.75;3.28;;;;;;;11.49;100.00;96982.94;4995135;28;20034;-71
2022/08/29 03:18:08;;;;;;;6.70;2.95;;;;;;;11.55;100.00;96987.31;4997335;28;20092;-73
2022/08/29 03:20:36;;;;;;;13.13;3.28;;;;;;;11.69;100.00;96982.47;4995157;28;20043;-73
2022/08/29 03:23:02;;;;;;;10.40;3.00;;;;;;;11.75;100.00;96984.19;5011859;28;20040;-70
2022/08/29 03:25:28;;;;;;;10.95;3.45;;;;;;;11.76;100.00;96991.19;4994463;28;20415;-70
2022/08/29 03:27:54;;;;;;;9.57;3.00;;;;;;;11.81;100.00;96977.06;4997069;28;20571;-72
2022/08/29 03:30:20;;;;;;;15.85;3.47;;;;;;;11.73;100.00;96979.06;4995457;28;20172;-70
2022/08/29 03:32:47;;;;;;;10.10;3.10;;;;;;;11.68;100.00;96975.50;4994700;28;20132;-70
2022/08/29 03:35:13;;;;;;;13.13;2.85;;;;;;;11.58;100.00;96981.47;4996147;28;20038;-74
2022/08/29 03:37:39;;;;;;;15.82;3.28;;;;;;;11.37;100.00;96971.47;4993712;28;20040;-71
2022/08/29 03:40:06;;;;;;;11.40;3.42;;;;;;;11.26;100.00;96973.13;4994944;28;20038;-72
2022/08/29 03:42:32;;;;;;;9.48;3.17;;;;;;;11.15;100.00;96976.69;4995544;28;20480;-71
2022/08/29 03:44:58;;;;;;;12.50;4.18;;;;;;;11.03;100.00;96979.41;4995112;28;20100;-70
2022/08/29 03:47:23;;;;;;;13.88;3.28;;;;;;;11.07;100.00;96983.25;4994139;28;20578;-70
2022/08/29 03:49:49;;;;;;;15.40;3.47;;;;;;;11.05;100.00;96980.00;4995200;28;20060;-71
2022/08/29 03:52:15;;;;;;;11.02;3.40;;;;;;;10.96;100.00;96983.25;4995282;28;20041;-72
2022/08/29 03:54:40;;;;;;;22.52;4.43;;;;;;;11.04;100.00;96974.84;4994538;28;20062;-69
2022/08/29 03:57:07;;;;;;;15.68;4.10;;;;;;;11.07;100.00;96977.06;4994259;28;20480;-70
2022/08/29 03:59:33;;;;;;;13.55;3.58;;;;;;;11.09;100.00;96977.63;4993481;28;20041;-69
2022/08/29 04:01:59;;;;;;;9.02;3.50;;;;;;;11.14;100.00;96965.16;4993767;28;20512;-70
2022/08/29 04:07:23;;;;;;;19.33;4.25;;;;;;;11.12;100.00;96975.28;4980643;28;20433;-69
2022/08/29 04:09:48;;;;;;;9.73;3.80;;;;;;;11.06;100.00;96964.75;4996444;28;20662;-70
2022/08/29 04:12:14;;;;;;;13.13;3.53;;;;;;;11.13;100.00;96974.25;4994507;28;20475;-71
2022/08/29 04:14:40;;;;;;;22.23;6.05;;;;;;;11.15;100.00;96976.69;4998221;28;20505;-72
2022/08/29 04:17:07;;;;;;;10.32;4.10;;;;;;;11.20;100.00;96974.09;4995480;28;20129;-70
2022/08/29 04:19:34;;;;;;;15.43;3.92;;;;;;;11.28;100.00;96973.69;4990855;28;20337;-70
2022/08/29 04:22:00;;;;;;;11.63;3.97;;;;;;;11.35;100.00;96979.72;4994623;28;20112;-73
2022/08/29 04:24:25;;;;;;;13.60;3.90;;;;;;;11.46;100.00;96977.25;4993322;28;20038;-73
2022/08/29 04:26:51;;;;;;;22.30;4.45;;;;;;;11.54;100.00;96980.34;4994497;28;20667;-69
2022/08/29 04:29:16;;;;;;;14.20;4.32;;;;;;;11.61;100.00;96986.38;4992928;28;20603;-70
2022/08/29 04:31:43;;;;;;;13.45;4.30;;;;;;;11.75;100.00;96964.59;4992367;28;20384;-71
2022/08/29 04:34:11;;;;;;;14.38;4.55;;;;;;;11.87;100.00;96974.22;4995252;28;20953;-72
2022/08/29 04:36:41;;;;;;;24.40;4.18;;;;;;;11.81;100.00;96975.19;4998905;28;20042;-71
2022/08/29 04:39:08;;;;;;;16.27;4.43;;;;;;;11.89;100.00;96968.59;4993595;28;20118;-71
2022/08/29 04:41:35;;;;;;;18.20;4.05;;;;;;;11.84;100.00;96973.91;4991811;28;20042;-72
2022/08/29 04:44:01;;;;;;;16.10;4.53;;;;;;;11.89;100.00;96976.66;4987100;28;20037;-70
2022/08/29 04:46:27;;;;;;;18.83;4.38;;;;;;;11.99;100.00;96980.31;4995078;28;20401;-69
2022/08/29 04:48:53;;;;;;;17.85;4.75;;;;;;;12.03;100.00;96980.63;4993105;28;20065;-72
2022/08/29 04:51:20;;;;;;;15.65;5.00;;;;;;;12.13;100.00;96978.09;4992370;28;20162;-73
2022/08/29 04:53:45;;;;;;;19.85;4.30;;;;;;;12.16;100.00;96974.13;4996048;28;20063;-73
2022/08/29 04:56:12;;;;;;;17.98;5.05;;;;;;;12.13;100.00;96975.41;4992869;28;20034;-75
2022/08/29 04:58:40;;;;;;;17.58;4.63;;;;;;;12.16;100.00;96971.44;5009609;28;21482;-73
2022/08/29 05:01:05;;;;;;;18.02;4.63;;;;;;;12.13;100.00;96979.97;4992460;28;20050;-71
2022/08/29 05:03:31;;;;;;;21.85;4.63;;;;;;;12.28;100.00;96980.19;4991392;28;20036;-74
2022/08/29 05:05:59;;;;;;;17.23;4.57;;;;;;;12.39;100.00;96991.91;4985626;28;20049;-72
2022/08/29 05:08:28;;;;;;;13.75;4.20;;;;;;;12.48;100.00;96996.59;4992770;28;20117;-71
2022/08/29 05:10:54;;;;;;;17.33;4.47;;;;;;;12.57;100.00;96998.84;5008171;28;20544;-72
2022/08/29 05:13:21;;;;;;;16.42;4.53;;;;;;;12.53;100.00;96998.56;4992327;28;20041;-72
2022/08/29 05:15:48;;;;;;;20.20;4.75;;;;;;;12.62;100.00;96990.88;4993542;28;20047;-72
2022/08/29 05:18:14;;;;;;;18.75;4.72;;;;;;;12.68;100.00;96990.69;4990360;28;20042;-72
2022/08/29 05:20:40;;;;;;;20.55;5.18;;;;;;;12.66;100.00;96983.94;4995115;28;20367;-73
2022/08/29 05:23:06;;;;;;;22.33;4.55;;;;;;;12.69;100.00;96986.16;4992713;28;20033;-72
2022/08/29 05:25:34;;;;;;;19.08;4.22;;;;;;;12.73;100.00;96993.44;4993382;28;20137;-75
2022/08/29 05:28:00;;;;;;;23.73;5.97;;;;;;;12.77;100.00;96997.25;4995124;28;20045;-72
2022/08/29 05:30:26;;;;;;;16.80;4.13;;;;;;;12.73;100.00;96993.44;4990738;28;20034;-75
2022/08/29 05:32:53;;;;;;;20.88;5.03;;;;;;;12.79;100.00;96997.00;4994389;28;20671;-73
2022/08/29 05:35:19;;;;;;;18.30;4.35;;;;;;;12.88;100.00;96992.81;4993362;28;20080;-75
2022/08/29 05:37:44;;;;;;;17.00;4.22;;;;;;;13.02;100.00;96995.94;4976492;28;20346;-74
2022/08/29 05:40:10;;;;;;;16.60;4.35;;;;;;;13.14;100.00;96996.63;4991176;28;20396;-72
2022/08/29 05:42:35;;;;;;;18.58;4.55;;;;;;;13.26;100.00;97001.91;4993606;28;20048;-73
2022/08/29 05:45:03;;;;;;;20.67;4.78;;;;;;;13.34;100.00;97006.81;5009466;28;20434;-73
2022/08/29 05:47:34;;;;;;;15.05;3.95;;;;;;;13.32;100.00;97006.28;4993911;28;20247;-75
2022/08/29 05:49:59;;;;;;;30.85;5.00;;;;;;;13.42;100.00;97017.13;4992564;28;20456;-72
2022/08/29 05:52:26;;;;;;;23.75;4.32;;;;;;;13.51;100.00;97014.78;4991372;28;20122;-75
2022/08/29 05:54:51;;;;;;;15.75;5.05;;;;;;;13.52;100.00;97019.91;4995994;28;20480;-71
2022/08/29 05:57:20;;;;;;;18.67;4.75;;;;;;;13.65;100.00;97024.06;4991941;28;20096;-74
2022/08/29 05:59:51;;;;;;;17.90;4.25;;;;;;;13.61;100.00;97026.44;4992200;28;20048;-72
2022/08/29 06:02:18;;;;;;;19.42;5.50;;;;;;;13.65;100.00;97018.69;4992601;28;20467;-72
2022/08/29 06:04:44;;;;;;;14.88;4.85;;;;;;;13.81;100.00;97016.97;4992232;28;20472;-71
2022/08/29 06:07:11;;;;;;;25.70;5.25;;;;;;;13.82;100.00;97008.63;4992322;28;20447;-73
2022/08/29 06:09:38;;;;;;;19.55;4.40;;;;;;;13.75;100.00;97015.28;5006814;28;20119;-70
2022/08/29 06:12:04;;;;;;;23.08;5.60;;;;;;;13.91;100.00;97020.53;5007199;28;20038;-73
2022/08/29 06:14:31;;;;;;;21.42;4.82;;;;;;;13.98;100.00;97020.34;4992600;28;20829;-73
2022/08/29 06:16:57;;;;;;;23.48;4.88;;;;;;;14.07;100.00;97024.19;4993287;28;20029;-69
2022/08/29 06:19:23;;;;;;;15.40;4.70;;;;;;;14.19;100.00;97019.44;4991720;28;20447;-69
2022/08/29 06:21:48;;;;;;;15.32;4.68;;;;;;;14.29;100.00;97020.56;4992858;28;20057;-71
2022/08/29 06:24:15;;;;;;;20.35;4.75;;;;;;;14.42;100.00;97029.03;4993530;28;20046;-73
2022/08/29 06:26:42;;;;;;;16.90;5.40;;;;;;;14.48;100.00;97027.22;4993880;28;20046;-74
2022/08/29 06:29:09;;;;;;;19.25;5.05;;;;;;;14.64;100.00;97020.06;4992407;28;20468;-69
2022/08/29 06:31:35;;;;;;;23.05;5.43;;;;;;;14.74;100.00;97023.59;4991588;28;20572;-70
2022/08/29 06:34:06;;;;;;;25.67;4.85;;;;;;;14.92;100.00;97024.22;4994468;28;20042;-71
2022/08/29 06:36:33;;;;;;;14.25;4.60;;;;;;;15.11;100.00;97025.41;4992090;28;20121;-70
2022/08/29 06:39:01;;;;;;;21.95;4.75;;;;;;;15.24;100.00;97027.59;4994029;28;20065;-71
2022/08/29 06:41:27;;;;;;;20.45;4.55;;;;;;;15.50;100.00;97041.97;5006922;28;20136;-70
2022/08/29 06:43:58;;;;;;;17.92;5.05;;;;;;;15.65;100.00;97035.84;4992588;28;20493;-69
2022/08/29 06:46:33;;;;;;;19.45;4.50;;;;;;;15.75;100.00;97041.25;5007639;28;21022;-71
2022/08/29 06:49:01;;;;;;;16.85;4.78;;;;;;;15.91;100.00;97041.28;4991280;28;20591;-71
2022/08/29 06:51:31;;;;;;;15.48;4.25;;;;;;;16.06;100.00;97044.81;4992496;28;20077;-73
2022/08/29 06:53:58;;;;;;;20.20;4.90;;;;;;;16.14;100.00;97041.56;5009021;28;20361;-70
2022/08/29 06:56:24;;;;;;;29.02;5.68;;;;;;;16.13;100.00;97039.94;4991784;28;20390;-74
2022/08/29 06:58:49;;;;;;;19.48;5.03;;;;;;;16.30;100.00;97046.97;4974820;28;20371;-69
2022/08/29 07:01:17;;;;;;;21.70;5.22;;;;;;;16.33;100.00;97047.22;4991317;28;20033;-70
2022/08/29 07:03:43;;;;;;;20.45;5.35;;;;;;;16.39;100.00;97043.44;5006989;28;20046;-71
2022/08/29 07:06:09;;;;;;;12.80;4.35;;;;;;;16.50;100.00;97041.56;4991127;28;20414;-74
2022/08/29 07:08:35;;;;;;;19.05;4.85;;;;;;;16.57;100.00;97046.66;4992588;28;20033;-70
2022/08/29 07:11:01;;;;;;;18.85;5.53;;;;;;;16.54;100.00;97042.63;4993385;28;20259;-71
2022/08/29 07:13:27;;;;;;;17.05;5.00;;;;;;;16.71;100.00;97039.66;4990689;28;20041;-72
2022/08/29 07:15:52;;;;;;;17.50;4.38;;;;;;;16.89;100.00;97046.38;4993357;28;20428;-69
2022/08/29 07:18:20;;;;;;;20.55;4.35;;;;;;;17.04;100.00;97048.22;4992047;28;20040;-70
2022/08/29 07:20:46;;;;;;;19.27;4.93;;;;;;;17.22;100.00;97040.31;4992671;28;20500;-74
2022/08/29 07:23:12;;;;;;;15.55;4.82;;;;;;;17.09;100.00;97040.91;4992974;28;20046;-74
2022/08/29 07:25:38;;;;;;;20.38;5.88;;;;;;;17.22;100.00;97045.72;4991724;28;20126;-72
2022/08/29 07:28:04;;;;;;;19.33;5.95;;;;;;;17.42;98.53;97047.53;4992997;28;20034;-74
2022/08/29 07:30:30;;;;;;;21.55;4.50;;;;;;;17.47;98.66;97042.09;4991428;28;20155;-73
2022/08/29 07:32:56;;;;;;;15.15;4.50;;;;;;;17.50;97.86;97049.63;4992951;28;20041;-71
2022/08/29 07:35:23;;;;;;;21.85;4.75;;;;;;;17.76;95.87;97044.16;4991404;28;20034;-73
2022/08/29 07:37:49;;;;;;;20.80;5.00;;;;;;;17.70;94.83;97048.78;4992591;28;20045;-70
2022/08/29 07:40:18;;;;;;;17.60;4.13;;;;;;;17.86;95.58;97045.97;4992524;28;20045;-70
2022/08/29 07:42:44;;;;;;;19.42;4.75;;;;;;;18.10;94.54;97044.97;4992479;28;20049;-73
2022/08/29 07:45:11;;;;;;;16.92;3.97;;;;;;;18.34;93.16;97042.34;4993764;28;20046;-69
2022/08/29 07:47:37;;;;;;;18.40;3.90;;;;;;;18.12;91.51;97041.19;4996074;28;20053;-72
2022/08/29 07:50:09;;;;;;;17.20;4.20;;;;;;;18.26;91.99;97039.44;4995414;28;20239;-71
2022/08/29 07:52:35;;;;;;;17.02;4.05;;;;;;;18.41;91.16;97041.22;4994828;28;20042;-71
2022/08/29 07:55:02;;;;;;;22.80;4.32;;;;;;;18.35;90.04;97040.44;4996427;28;20080;-70
2022/08/29 07:57:27;;;;;;;27.08;4.10;;;;;;;18.42;90.56;97045.53;4995404;28;20037;-72
2022/08/29 07:59:52;;;;;;;14.77;4.03;;;;;;;18.36;88.94;97044.78;4997018;28;20384;-71
2022/08/29 08:02:18;;;;;;;12.55;3.88;;;;;;;18.23;88.08;97032.72;4994160;28;20050;-72
2022/08/29 08:04:44;;;;;;;15.77;3.92;;;;;;;18.03;88.38;97039.06;4994396;28;20038;-74
2022/08/29 08:07:09;;;;;;;16.52;4.18;;;;;;;18.06;88.35;97040.44;4995313;28;20295;-74
2022/08/29 08:09:36;;;;;;;12.18;3.45;;;;;;;18.07;89.54;97034.72;4996343;28;20512;-73
2022/08/29 08:12:04;;;;;;;20.52;3.78;;;;;;;17.98;88.64;97041.84;4995708;28;20769;-70
2022/08/29 08:14:29;;;;;;;17.38;4.97;;;;;;;17.99;88.27;97051.56;4993281;28;20083;-71
2022/08/29 08:16:54;;;;;;;14.20;3.28;;;;;;;18.00;87.58;97045.06;4994069;28;20489;-70
2022/08/29 08:19:20;;;;;;;16.55;4.30;;;;;;;18.20;88.11;97044.09;4994421;28;20478;-70
2022/08/29 08:21:45;;;;;;;21.65;3.65;;;;;;;18.61;87.09;97044.56;4995127;28;20740;-72
2022/08/29 08:24:11;;;;;;;13.65;3.70;;;;;;;19.10;83.96;97045.44;4996107;28;20271;-74
2022/08/29 08:26:36;;;;;;;11.68;3.45;;;;;;;19.42;82.33;97042.06;4995933;28;20107;-72
2022/08/29 08:29:03;;;;;;;17.50;3.85;;;;;;;19.74;80.29;97041.41;4995197;28;20092;-73
2022/08/29 08:31:29;;;;;;;17.50;4.10;;;;;;;19.74;79.98;97039.50;4993845;28;20050;-71
2022/08/29 08:33:54;;;;;;;20.17;3.70;;;;;;;19.66;81.95;97034.72;4995616;28;20048;-74
2022/08/29 08:36:30;;;;;;;19.77;4.78;;;;;;;19.54;81.69;97034.31;4994757;28;20038;-70
2022/08/29 08:38:58;;;;;;;18.08;4.22;;;;;;;19.35;82.68;97041.59;4995904;28;20498;-71
2022/08/29 08:41:32;;;;;;;18.35;4.05;;;;;;;19.29;83.10;97043.56;5010359;28;20037;-71
2022/08/29 08:44:05;;;;;;;13.90;3.80;;;;;;;19.29;82.17;97038.16;5011411;28;20040;-71
2022/08/29 08:46:37;;;;;;;15.73;3.97;;;;;;;19.40;83.75;97042.38;4993561;28;20037;-74
2022/08/29 08:49:09;;;;;;;23.42;5.32;;;;;;;19.30;82.25;97049.81;4995624;28;20112;-77
2022/08/29 08:51:42;;;;;;;17.48;4.20;;;;;;;19.44;80.98;97053.44;4993440;28;20052;-77
2022/08/29 08:54:15;;;;;;;11.40;3.72;;;;;;;19.43;80.57;97044.47;4994711;28;20057;-77
2022/08/29 08:56:45;;;;;;;17.73;3.85;;;;;;;19.74;80.98;97039.50;4993842;28;20498;-77
2022/08/29 08:59:28;;;;;;;18.60;4.75;;;;;;;19.82;81.91;97045.34;5010864;28;20030;-77
2022/08/29 09:02:00;;;;;;;19.80;4.57;;;;;;;19.93;82.07;97044.13;4989528;28;20064;-77
2022/08/29 09:04:42;;;;;;;21.63;4.38;;;;;;;20.07;81.38;97041.47;4973838;28;20057;-74
2022/08/29 09:07:16;;;;;;;19.67;4.20;;;;;;;20.15;79.79;97047.03;4975511;28;20042;-75
2022/08/29 09:09:42;;;;;;;22.83;5.03;;;;;;;20.27;79.87;97052.00;4975520;28;20042;-76
2022/08/29 09:12:25;;;;;;;15.65;4.25;;;;;;;20.23;79.71;97050.97;4975022;28;20041;-76
2022/08/29 09:14:54;;;;;;;22.05;4.30;;;;;;;20.16;83.24;97037.78;4976106;28;20429;-75
2022/08/29 09:17:25;;;;;;;13.45;4.85;;;;;;;19.88;80.37;97044.19;4973870;28;20038;-76
2022/08/29 09:19:50;;;;;;;12.85;4.40;;;;;;;20.19;80.85;97041.81;4919394;28;20055;-75
2022/08/29 09:22:24;;;;;;;24.42;4.75;;;;;;;20.36;78.20;97050.22;4968491;28;20100;-76
2022/08/29 09:24:58;;;;;;;17.50;4.18;;;;;;;20.27;79.34;97041.94;4953301;28;20041;-76
2022/08/29 09:27:27;;;;;;;19.27;5.68;;;;;;;20.33;79.85;97036.44;4949276;28;20912;-76
2022/08/29 09:30:04;;;;;;;22.65;4.72;;;;;;;20.52;77.07;97037.22;4956934;28;20520;-75
2022/08/29 09:32:29;;;;;;;21.63;4.97;;;;;;;20.63;76.37;97043.31;4963904;28;20362;-76
2022/08/29 09:34:55;;;;;;;21.48;4.55;;;;;;;20.35;75.09;97045.09;4956029;28;20440;-76
2022/08/29 09:37:31;;;;;;;21.25;5.00;;;;;;;20.27;77.58;97041.16;4954883;28;20102;-76
2022/08/29 09:40:10;;;;;;;20.27;4.75;;;;;;;20.45;76.92;97047.66;4971633;28;20638;-75
2022/08/29 09:42:40;;;;;;;15.15;4.57;;;;;;;20.77;73.61;97044.94;4965056;28;20542;-76
2022/08/29 09:45:24;;;;;;;14.68;4.35;;;;;;;21.14;72.82;97043.16;4956808;28;20058;-75
2022/08/29 09:48:07;;;;;;;21.25;4.20;;;;;;;21.47;68.77;97045.78;4954006;28;20122;-75
2022/08/29 09:50:33;;;;;;;16.17;3.75;;;;;;;21.13;68.49;97047.00;4954811;28;20130;-75
2022/08/29 09:53:01;;;;;;;17.00;4.40;;;;;;;21.19;69.38;97044.97;4953952;28;20126;-75
2022/08/29 09:55:36;;;;;;;16.52;4.53;;;;;;;21.07;68.37;97040.03;4951998;28;20041;-75
2022/08/29 09:58:06;;;;;;;17.35;5.07;;;;;;;21.38;68.39;97045.69;4953900;28;20114;-75
2022/08/29 10:00:36;;;;;;;22.70;4.50;;;;;;;21.51;67.21;97041.38;4953499;28;20423;-77
2022/08/29 10:03:05;;;;;;;16.13;4.32;;;;;;;21.20;65.73;97046.59;4953188;28;20086;-76
2022/08/29 10:05:40;;;;;;;16.48;4.90;;;;;;;21.23;67.06;97040.53;4955109;28;20636;-76
2022/08/29 10:08:24;;;;;;;21.08;4.10;;;;;;;21.23;62.98;97043.25;4969250;28;20047;-75
2022/08/29 10:10:58;;;;;;;16.27;4.55;;;;;;;21.79;62.92;97040.22;4955994;28;20046;-75
2022/08/29 10:13:46;;;;;;;13.55;3.83;;;;;;;22.17;61.61;97042.63;4954729;28;20800;-75
2022/08/29 10:16:14;;;;;;;11.70;3.83;;;;;;;22.50;54.19;97046.72;4954092;28;20535;-77
2022/08/29 10:19:02;;;;;;;16.00;4.38;;;;;;;22.58;53.76;97055.28;4953777;28;20046;-76
2022/08/29 10:22:09;;;;;;;14.90;4.28;;;;;;;22.72;54.81;97053.25;4952842;28;20153;-75
2022/08/29 10:24:57;;;;;;;20.60;4.07;;;;;;;23.04;54.21;97042.09;4953821;28;20509;-77
2022/08/29 10:27:44;;;;;;;18.05;3.95;;;;;;;23.40;50.90;97032.06;4953011;28;20042;-76
2022/08/29 10:30:44;;;;;;;12.93;3.95;;;;;;;22.96;50.47;97037.38;4952024;28;20584;-77
2022/08/29 10:33:33;;;;;;;17.70;4.32;;;;;;;23.32;53.03;97034.47;4641222;28;10000454;-76
2022/08/29 10:36:07;;;;;;;14.68;4.15;;;;;;;23.63;47.79;97036.34;4971246;28;20042;-76
2022/08/29 10:38:43;;;;;;;14.88;3.40;;;;;;;23.90;46.63;97027.88;4969014;28;20357;-77
2022/08/29 10:41:35;;;;;;;11.30;3.30;;;;;;;24.83;44.97;97026.50;4970496;28;20438;-76
2022/08/29 10:44:09;;;;;;;14.18;3.40;;;;;;;25.27;42.96;97022.47;4945097;28;20552;-76
2022/08/29 10:47:09;;;;;;;15.95;3.47;;;;;;;25.69;41.18;97025.31;4965891;28;20631;-76
2022/08/29 10:49:49;;;;;;;13.82;4.00;;;;;;;27.15;37.15;97024.31;4969228;28;20038;-77
2022/08/29 10:52:21;;;;;;;16.30;3.60;;;;;;;28.93;34.23;97010.38;4969440;28;20034;-76
2022/08/29 10:54:53;;;;;;;12.82;3.80;;;;;;;30.81;30.59;97020.47;4969333;28;20050;-75
2022/08/29 10:57:44;;;;;;;15.73;4.07;;;;;;;32.71;26.74;96998.81;4968280;28;20089;-76
2022/08/29 11:00:14;;;;;;;12.95;3.47;;;;;;;34.30;25.82;97002.41;4968245;28;20133;-77
2022/08/29 11:02:43;;;;;;;18.20;4.00;;;;;;;34.52;24.39;96994.97;4961801;28;20046;-76
2022/08/29 11:05:15;;;;;;;12.32;3.70;;;;;;;35.46;23.90;96997.50;4970812;28;20068;-76
2022/08/29 11:07:46;;;;;;;23.48;4.22;;;;;;;36.22;22.53;96998.94;4968087;28;20058;-75
2022/08/29 11:10:16;;;;;;;;;;;;;;;35.71;22.17;96984.34;4968865;28;20041;-76
2022/08/29 11:12:54;;;;;;;18.85;3.80;;;;;;;34.34;23.60;96992.09;4969187;28;19921;-76
2022/08/29 11:15:25;;;;;;;15.93;4.20;;;;;;;35.08;23.07;96991.50;4969249;28;20101;-77
2022/08/29 11:18:23;;;;;;;17.85;3.60;;;;;;;36.79;21.43;96982.75;4968355;28;20222;-76
2022/08/29 11:20:56;;;;;;;17.30;3.58;;;;;;;35.71;22.30;96980.75;4973446;28;20160;-76
2022/08/29 11:23:43;;;;;;;11.93;2.75;;;;;;;36.53;21.08;96972.16;4976442;28;20175;-77
2022/08/29 11:26:20;;;;;;;11.98;3.45;;;;;;;37.70;20.28;96970.47;4978507;28;20130;-77
2022/08/29 11:28:58;;;;;;;15.80;3.22;;;;;;;38.97;19.07;96969.31;4974718;28;20100;-78
2022/08/29 11:31:46;;;;;;;19.35;3.83;;;;;;;39.40;17.75;96957.47;4974539;28;20057;-77
2022/08/29 11:34:26;;;;;;;9.57;3.40;;;;;;;41.21;17.72;96961.31;4979140;28;20039;-78
2022/08/29 11:36:55;;;;;;;17.73;3.70;;;;;;;40.76;17.30;96964.75;4972542;28;20251;-78